createdAt,value
2022-09-07T00:01:18.882Z,19797.59
2022-09-07T00:03:46.967Z,19785.38
2022-09-07T00:06:15.756Z,19828.06
2022-09-07T00:08:45.238Z,19787.41
2022-09-07T00:11:16.450Z,19821.97
2022-09-07T00:13:47.344Z,19815.88
2022-09-07T00:16:19.849Z,19799.63
2022-09-07T00:18:48.815Z,19758.97
2022-09-07T00:21:18.999Z,19748.81
2022-09-07T00:23:50.351Z,19765.06
2022-09-07T00:26:21.407Z,19787.41
2022-09-07T00:28:50.396Z,19716.28
2022-09-07T00:31:22.166Z,19691.91
2022-09-07T00:33:52.507Z,19700.03
2022-09-07T00:36:23.394Z,19698.00
2022-09-07T00:38:53.479Z,19689.88
2022-09-07T00:41:23.463Z,19706.13
2022-09-07T00:43:55.013Z,19659.38
2022-09-07T00:46:26.233Z,19708.16
2022-09-07T00:49:02.094Z,19695.97
2022-09-07T00:51:38.347Z,19661.41
2022-09-07T00:54:13.822Z,19663.44
2022-09-07T00:56:45.251Z,19649.22
2022-09-07T00:59:18.711Z,19661.41
2022-09-07T01:01:47.451Z,19683.78
2022-09-07T01:04:17.165Z,19661.41
2022-09-07T01:06:45.670Z,19626.88
2022-09-07T01:09:20.560Z,19620.78
2022-09-07T01:11:51.060Z,19598.41
2022-09-07T01:14:27.577Z,19632.97
2022-09-07T01:17:10.141Z,19598.41
2022-09-07T01:20:49.501Z,19635.00
2022-09-07T01:24:24.524Z,19569.97
2022-09-07T01:27:55.554Z,19594.34
2022-09-07T01:30:25.955Z,19602.47
2022-09-07T01:33:31.884Z,19576.06
2022-09-07T01:36:17.477Z,19565.91
2022-09-07T01:38:50.363Z,19569.97
2022-09-07T01:41:30.351Z,19565.91
2022-09-07T01:44:08.164Z,19517.13
2022-09-07T01:46:46.983Z,19561.84
2022-09-07T01:49:24.242Z,19531.34
2022-09-07T01:52:01.980Z,19563.88
2022-09-07T01:54:38.255Z,19557.78
2022-09-07T01:57:14.166Z,19523.22
2022-09-07T01:59:50.261Z,19563.88
2022-09-07T02:02:24.666Z,19563.88
2022-09-07T02:05:01.511Z,19541.50
2022-09-07T02:07:37.843Z,19531.34
2022-09-07T02:10:13.408Z,19578.09
2022-09-07T02:12:48.698Z,19539.47
2022-09-07T02:15:28.828Z,19551.69
2022-09-07T02:18:05.239Z,19517.13
2022-09-07T02:20:39.031Z,19506.97
2022-09-07T02:23:18.438Z,19561.84
2022-09-07T02:25:55.213Z,19541.50
2022-09-07T02:28:29.707Z,19515.09
2022-09-07T02:31:00.240Z,19519.16
2022-09-07T02:33:29.347Z,19478.50
2022-09-07T02:35:58.670Z,19511.03
2022-09-07T02:38:27.307Z,19541.50
2022-09-07T02:40:58.855Z,19452.09
2022-09-07T02:43:28.952Z,19488.69
2022-09-07T02:46:23.733Z,19468.34
2022-09-07T02:49:07.095Z,19492.75
2022-09-07T02:51:46.592Z,19496.81
2022-09-07T02:54:36.392Z,19496.81
2022-09-07T02:57:18.862Z,19523.22
2022-09-07T03:00:02.564Z,19521.19
2022-09-07T03:02:44.222Z,19561.84
2022-09-07T03:05:21.366Z,19541.50
2022-09-07T03:07:59.709Z,19543.53
2022-09-07T03:10:29.709Z,19533.38
2022-09-07T03:12:58.020Z,19572.00
2022-09-07T03:15:28.628Z,19525.25
2022-09-07T03:17:58.304Z,19537.44
2022-09-07T03:20:26.535Z,19557.78
2022-09-07T03:22:54.637Z,19541.50
2022-09-07T03:25:24.023Z,19598.41
2022-09-07T03:27:52.309Z,19616.72
2022-09-07T03:30:20.841Z,19572.00
2022-09-07T03:32:48.988Z,19569.97
2022-09-07T03:35:19.359Z,19563.88
2022-09-07T03:37:47.441Z,19561.84
2022-09-07T03:40:17.397Z,19539.47
2022-09-07T03:42:49.288Z,19569.97
2022-09-07T03:45:18.437Z,19517.13
2022-09-07T03:47:46.799Z,19553.72
2022-09-07T03:50:14.891Z,19545.56
2022-09-07T03:52:44.349Z,19561.84
2022-09-07T03:55:12.680Z,19555.75
2022-09-07T03:57:41.045Z,19549.63
2022-09-07T04:00:10.841Z,19525.25
2022-09-07T04:02:39.015Z,19500.88
2022-09-07T04:05:08.127Z,19551.69
2022-09-07T04:07:36.306Z,19569.97
2022-09-07T04:10:06.340Z,19547.59
2022-09-07T04:12:34.519Z,19567.94
2022-09-07T04:15:02.643Z,19563.88
2022-09-07T04:17:30.735Z,19517.13
2022-09-07T04:19:58.824Z,19553.72
2022-09-07T04:22:26.933Z,19537.44
2022-09-07T04:24:55.041Z,19578.09
2022-09-07T04:27:24.455Z,19574.03
2022-09-07T04:29:52.587Z,19598.41
2022-09-07T04:32:20.671Z,19614.66
2022-09-07T04:34:48.870Z,19574.03
2022-09-07T04:37:17.085Z,19588.25
2022-09-07T04:39:45.203Z,19569.97
2022-09-07T04:42:13.368Z,19626.88
2022-09-07T04:44:42.844Z,19602.47
2022-09-07T04:47:11.111Z,19598.41
2022-09-07T04:49:39.214Z,19586.22
2022-09-07T04:52:07.448Z,19598.41
2022-09-07T04:54:35.536Z,19610.59
2022-09-07T04:57:03.653Z,19630.94
2022-09-07T04:59:31.884Z,19624.84
2022-09-07T05:02:01.407Z,19576.06
2022-09-07T05:04:29.625Z,19578.09
2022-09-07T05:06:57.765Z,19622.81
2022-09-07T05:09:25.869Z,19572.00
2022-09-07T05:11:54.548Z,19626.88
2022-09-07T05:14:22.648Z,19667.50
2022-09-07T05:16:50.908Z,19691.91
2022-09-07T05:19:20.391Z,19677.66
2022-09-07T05:21:48.529Z,19718.31
2022-09-07T05:24:16.701Z,19667.50
2022-09-07T05:26:44.945Z,19665.47
2022-09-07T05:32:01.532Z,19673.59
2022-09-07T05:34:31.750Z,19689.88
2022-09-07T05:37:01.360Z,19738.66
2022-09-07T05:39:30.129Z,19716.28
2022-09-07T05:41:58.395Z,19730.50
2022-09-07T05:47:10.480Z,19809.78
2022-09-07T05:49:40.308Z,19803.69
2022-09-07T05:52:08.640Z,19791.47
2022-09-07T05:54:36.809Z,19824.00
2022-09-07T05:57:06.316Z,19826.03
2022-09-07T05:59:35.121Z,19860.59
2022-09-07T06:02:03.320Z,19919.53
2022-09-07T06:04:31.572Z,19897.16
2022-09-07T06:12:37.264Z,20059.75
2022-09-07T06:15:06.322Z,20104.47
2022-09-07T06:17:34.468Z,20147.16
2022-09-07T06:20:03.244Z,20224.41
2022-09-07T06:22:32.725Z,20291.47
2022-09-07T06:25:00.853Z,20372.78
2022-09-07T06:27:29.436Z,20378.88
2022-09-07T06:29:58.017Z,20403.25
2022-09-07T06:35:15.510Z,20529.28
2022-09-07T06:37:45.543Z,20567.91
2022-09-07T06:40:14.012Z,20506.94
2022-09-07T06:42:42.338Z,20545.56
2022-09-07T06:45:11.571Z,20513.03
2022-09-07T06:47:40.714Z,20616.69
2022-09-07T06:50:10.891Z,20647.19
2022-09-07T06:55:29.390Z,20773.22
2022-09-07T06:57:57.622Z,20785.44
2022-09-07T07:00:25.900Z,20838.28
2022-09-07T07:02:54.045Z,20840.31
2022-09-07T07:05:22.179Z,20919.59
2022-09-07T07:07:50.297Z,20988.72
2022-09-07T07:10:23.702Z,21094.44
2022-09-07T07:12:57.941Z,21151.34
2022-09-07T07:15:29.356Z,21226.59
2022-09-07T07:18:02.596Z,21287.56
2022-09-07T07:20:37.839Z,21297.75
2022-09-07T07:23:06.300Z,21417.69
2022-09-07T07:25:36.208Z,21446.16
2022-09-07T07:30:57.174Z,21578.31
2022-09-07T07:33:25.930Z,21600.69
2022-09-07T07:35:54.123Z,21667.78
2022-09-07T07:44:01.176Z,21838.59
2022-09-07T07:46:30.487Z,21834.53
2022-09-07T07:48:59.138Z,21915.88
2022-09-07T07:51:27.613Z,21956.53
2022-09-07T07:53:56.146Z,22015.50
2022-09-07T07:56:24.428Z,22037.88
2022-09-07T07:58:52.733Z,22082.63
2022-09-07T08:01:22.180Z,22127.34
2022-09-07T08:03:50.871Z,22143.63
2022-09-07T08:06:21.740Z,22135.47
2022-09-07T08:08:49.876Z,22086.69
2022-09-07T08:11:20.842Z,22127.34
2022-09-07T08:13:51.002Z,22170.06
2022-09-07T08:16:21.159Z,22170.06
2022-09-07T08:18:49.275Z,22115.16
2022-09-07T08:21:18.143Z,22078.53
2022-09-07T08:23:46.243Z,22039.91
2022-09-07T08:26:14.297Z,21974.84
2022-09-07T08:28:45.524Z,21954.50
2022-09-07T08:31:16.793Z,21867.06
2022-09-07T08:33:46.557Z,21858.94
2022-09-07T08:36:17.246Z,21820.28
2022-09-07T08:38:45.651Z,21836.56
2022-09-07T08:41:52.535Z,21808.09
2022-09-07T08:44:26.828Z,21810.13
2022-09-07T08:47:01.221Z,21865.03
2022-09-07T08:49:43.930Z,21887.41
2022-09-07T08:52:17.175Z,21930.09
2022-09-07T08:54:54.939Z,21960.59
2022-09-07T08:57:34.154Z,21978.91
2022-09-07T09:00:08.823Z,21970.78
2022-09-07T09:02:43.526Z,22021.59
2022-09-07T09:05:29.035Z,22074.47
2022-09-07T09:08:21.797Z,22117.19
2022-09-07T09:11:02.536Z,22039.91
2022-09-07T09:13:52.114Z,22096.84
2022-09-07T09:16:34.935Z,22062.28
2022-09-07T09:19:23.310Z,21964.66
2022-09-07T09:22:08.578Z,22094.81
2022-09-07T09:24:42.143Z,22174.13
2022-09-07T09:27:10.932Z,22265.63
2022-09-07T09:29:38.945Z,22218.84
2022-09-07T09:32:33.997Z,22243.25
2022-09-07T09:35:12.334Z,22257.50
2022-09-07T09:37:44.135Z,22310.38
2022-09-07T09:40:26.480Z,22318.50
2022-09-07T09:43:07.757Z,22294.09
2022-09-07T09:48:35.889Z,22265.63
2022-09-07T09:54:07.094Z,22249.38
2022-09-07T09:56:41.207Z,22285.97
2022-09-07T10:05:38.637Z,22491.38
2022-09-07T10:08:19.673Z,22534.09
2022-09-07T10:11:02.734Z,22505.59
2022-09-07T10:13:35.118Z,22550.34
2022-09-07T10:16:07.540Z,22511.72
2022-09-07T10:18:39.180Z,22424.25
2022-09-07T10:21:23.670Z,22408.00
2022-09-07T10:23:58.300Z,22381.56
2022-09-07T10:26:33.036Z,22403.94
2022-09-07T10:29:17.444Z,22420.19
2022-09-07T10:32:06.836Z,22275.81
2022-09-07T10:34:50.885Z,22320.53
2022-09-07T10:37:32.032Z,22257.50
2022-09-07T10:40:17.299Z,22241.22
2022-09-07T10:46:56.188Z,22328.69
2022-09-07T10:49:22.284Z,22436.47
2022-09-07T10:52:05.380Z,22473.06
2022-09-07T10:54:48.444Z,22572.72
2022-09-07T10:57:39.303Z,22639.84
2022-09-07T11:00:15.813Z,22727.28
2022-09-07T11:03:25.313Z,22763.91
2022-09-07T11:06:15.008Z,22920.53
2022-09-07T11:09:16.338Z,22837.13
2022-09-07T11:12:08.167Z,22818.81
2022-09-07T11:14:44.551Z,22849.34
2022-09-07T11:17:22.161Z,22841.19
2022-09-07T11:20:04.079Z,22892.03
2022-09-07T11:22:38.863Z,22887.97
2022-09-07T11:25:35.342Z,22906.28
2022-09-07T11:28:14.078Z,22904.25
2022-09-07T11:30:49.944Z,22918.50
2022-09-07T11:33:24.778Z,22981.53
2022-09-07T11:36:00.973Z,23040.53
2022-09-07T11:38:35.552Z,23016.13
2022-09-07T11:41:22.162Z,22936.78
2022-09-07T11:44:01.774Z,22729.34
2022-09-07T11:46:41.698Z,22776.09
2022-09-07T11:49:21.064Z,22700.84
2022-09-07T11:51:56.924Z,22656.13
2022-09-07T11:54:42.337Z,22631.72
2022-09-07T11:58:01.037Z,22702.88
2022-09-07T12:00:45.244Z,22654.06
2022-09-07T12:03:50.853Z,22656.13
2022-09-07T12:06:54.898Z,22639.84
2022-09-07T12:09:51.513Z,22666.28
2022-09-07T12:12:56.596Z,22684.59
2022-09-07T12:15:44.535Z,22641.88
2022-09-07T12:18:33.331Z,22723.22
2022-09-07T12:21:01.484Z,22749.66
2022-09-07T12:23:32.848Z,22759.84
2022-09-07T12:26:57.892Z,22826.97
2022-09-07T12:29:28.970Z,23036.47
2022-09-07T12:32:07.390Z,23307.00
2022-09-07T12:34:57.884Z,23545.00
2022-09-07T12:37:43.967Z,23435.16
2022-09-07T12:40:59.723Z,23282.59
2022-09-07T12:43:54.255Z,23189.00
2022-09-07T12:46:52.957Z,23150.38
2022-09-07T12:50:05.846Z,23085.28
2022-09-07T12:52:51.035Z,23048.66
2022-09-07T12:56:28.542Z,22987.63
2022-09-07T12:59:31.388Z,23016.13
2022-09-07T13:02:18.168Z,22993.75
2022-09-07T13:05:01.572Z,22969.34
2022-09-07T13:08:15.796Z,22942.91
2022-09-07T13:10:46.400Z,22987.63
2022-09-07T13:17:16.138Z,22961.19
2022-09-07T13:20:08.322Z,23030.34
2022-09-07T13:22:56.157Z,22995.78
2022-09-07T13:25:46.515Z,23022.22
2022-09-07T13:28:30.189Z,23038.50
2022-09-07T13:31:43.371Z,23020.19
2022-09-07T13:34:50.975Z,23073.06
2022-09-07T13:37:24.039Z,23164.59
2022-09-07T13:39:56.567Z,23164.59
2022-09-07T13:42:30.134Z,23107.66
2022-09-07T13:45:02.089Z,23044.59
2022-09-07T13:47:47.716Z,22997.81
2022-09-07T13:50:38.165Z,23152.41
2022-09-07T13:53:36.653Z,23146.28
2022-09-07T13:56:22.236Z,23093.41
2022-09-07T13:58:53.980Z,23103.59
2022-09-07T14:01:27.149Z,23130.03
2022-09-07T14:03:59.498Z,23109.69
2022-09-07T14:06:36.188Z,23089.34
2022-09-07T14:09:14.437Z,23073.06
2022-09-07T14:11:45.820Z,23040.53
2022-09-07T14:14:21.239Z,22955.09
2022-09-07T14:16:57.699Z,22959.16
2022-09-07T14:19:37.407Z,22955.09
2022-09-07T14:22:12.108Z,22979.50
2022-09-07T14:24:44.528Z,22965.28
2022-09-07T14:27:25.340Z,22975.44
2022-09-07T14:29:53.682Z,23028.31
2022-09-07T14:32:27.188Z,23083.25
2022-09-07T14:34:55.648Z,23121.88
2022-09-07T14:37:24.641Z,23144.25
2022-09-07T14:39:53.670Z,23174.78
2022-09-07T14:42:24.899Z,23258.19
2022-09-07T14:45:32.085Z,23327.34
2022-09-07T14:48:00.165Z,23307.00
2022-09-07T14:50:33.987Z,23264.28
2022-09-07T14:56:03.438Z,23140.19
2022-09-07T14:58:33.195Z,23050.69
2022-09-07T15:01:37.547Z,22983.56
2022-09-07T15:04:19.375Z,22920.53
2022-09-07T15:07:03.261Z,22879.84
2022-09-07T15:09:38.254Z,22877.81
2022-09-07T15:12:24.903Z,22843.22
2022-09-07T15:15:12.182Z,22875.78
2022-09-07T15:17:43.378Z,22824.94
2022-09-07T15:20:36.153Z,22814.75
2022-09-07T15:23:07.098Z,22784.25
2022-09-07T15:25:36.645Z,22749.66
2022-09-07T15:28:05.754Z,22776.09
2022-09-07T15:30:34.812Z,22747.63
2022-09-07T15:33:04.306Z,22613.41
2022-09-07T15:35:32.324Z,22574.75
2022-09-07T15:38:05.226Z,22552.38
2022-09-07T15:41:20.831Z,22527.97
2022-09-07T15:43:40.472Z,22471.03
2022-09-07T15:46:09.870Z,22538.16
2022-09-07T15:48:39.423Z,22481.22
2022-09-07T15:54:13.672Z,22432.41
2022-09-07T15:56:44.036Z,22450.69
2022-09-07T15:59:31.194Z,22432.41
2022-09-07T16:01:59.561Z,22420.19
2022-09-07T16:04:29.510Z,22497.47
2022-09-07T16:06:58.023Z,22489.34
2022-09-07T16:09:26.810Z,22570.69
2022-09-07T16:11:54.902Z,22562.56
2022-09-07T16:14:23.027Z,22595.09
2022-09-07T16:19:41.379Z,22631.72
2022-09-07T16:22:09.643Z,22627.63
2022-09-07T16:24:38.314Z,22599.16
2022-09-07T16:27:06.688Z,22603.22
2022-09-07T16:29:36.369Z,22617.47
2022-09-07T16:34:54.226Z,22599.16
2022-09-07T16:37:22.215Z,22593.06
2022-09-07T16:39:51.499Z,22627.63
2022-09-07T16:42:19.979Z,22619.50
2022-09-07T16:44:48.000Z,22605.25
2022-09-07T16:47:16.069Z,22637.81
2022-09-07T16:49:44.066Z,22562.56
2022-09-07T16:52:13.417Z,22532.06
2022-09-07T16:54:41.425Z,22501.53
2022-09-07T16:57:09.363Z,22485.28
2022-09-07T16:59:37.322Z,22460.88
2022-09-07T17:02:05.269Z,22440.53
2022-09-07T17:04:33.304Z,22416.13
2022-09-07T17:07:01.369Z,22357.16
2022-09-07T17:09:30.703Z,22346.97
2022-09-07T17:11:58.685Z,22290.03
2022-09-07T17:14:28.230Z,22277.84
2022-09-07T17:16:56.323Z,22275.81
2022-09-07T17:19:31.804Z,22206.66
2022-09-07T17:22:00.665Z,22190.38
2022-09-07T17:24:32.167Z,22157.84
2022-09-07T17:27:00.849Z,22102.94
2022-09-07T17:29:30.502Z,22123.28
2022-09-07T17:34:47.224Z,22039.91
2022-09-07T17:37:15.223Z,22037.88
2022-09-07T17:39:44.771Z,22001.28
2022-09-07T17:42:13.316Z,21960.59
2022-09-07T17:44:41.364Z,21915.88
2022-09-07T17:47:09.991Z,21871.13
2022-09-07T17:49:38.050Z,21850.78
2022-09-07T17:52:06.337Z,21875.19
2022-09-07T17:54:34.236Z,21810.13
2022-09-07T17:57:03.921Z,21779.63
2022-09-07T18:02:20.277Z,21743.03
2022-09-07T18:04:49.121Z,21769.47
2022-09-07T18:07:17.216Z,21724.72
2022-09-07T18:09:45.129Z,21690.16
2022-09-07T18:12:14.431Z,21716.59
2022-09-07T18:14:43.559Z,21692.19
2022-09-07T18:17:11.785Z,21639.31
2022-09-07T18:19:39.730Z,21625.09
2022-09-07T18:22:08.637Z,21608.81
2022-09-07T18:24:37.160Z,21645.44
2022-09-07T18:27:06.346Z,21645.44
2022-09-07T18:29:35.637Z,21627.13
2022-09-07T18:32:08.557Z,21606.78
2022-09-07T18:34:38.105Z,21623.06
2022-09-07T18:37:06.947Z,21590.53
2022-09-07T18:39:35.529Z,21588.50
2022-09-07T18:42:03.835Z,21562.06
2022-09-07T18:47:28.736Z,21584.44
2022-09-07T18:49:58.457Z,21584.44
2022-09-07T18:55:16.148Z,21710.50
2022-09-07T18:57:44.943Z,21712.53
2022-09-07T19:00:14.748Z,21661.69
2022-09-07T19:02:44.136Z,21649.50
2022-09-07T19:08:03.234Z,21706.44
2022-09-07T19:10:35.789Z,21659.66
2022-09-07T19:13:04.021Z,21616.97
2022-09-07T19:15:37.395Z,21547.81
2022-09-07T19:18:08.681Z,21551.91
2022-09-07T19:20:37.617Z,21486.81
2022-09-07T19:23:06.465Z,21527.50
2022-09-07T19:25:34.597Z,21517.31
2022-09-07T19:28:02.749Z,21497.00
2022-09-07T19:30:30.832Z,21466.50
2022-09-07T19:33:03.938Z,21444.13
2022-09-07T19:35:37.329Z,21387.19
2022-09-07T19:38:05.872Z,21366.88
2022-09-07T19:40:34.189Z,21370.94
2022-09-07T19:43:02.449Z,21328.25
2022-09-07T19:45:30.516Z,21303.84
2022-09-07T19:47:58.794Z,21257.09
2022-09-07T19:50:26.857Z,21265.22
2022-09-07T19:52:56.255Z,21220.47
2022-09-07T19:55:24.302Z,21240.81
2022-09-07T19:57:52.470Z,21277.41
2022-09-07T20:00:20.646Z,21340.44
2022-09-07T20:02:49.971Z,21309.94
2022-09-07T20:05:19.154Z,21279.44
2022-09-07T20:07:47.327Z,21273.34
2022-09-07T20:10:17.509Z,21253.00
2022-09-07T20:12:45.612Z,21224.56
2022-09-07T20:15:13.662Z,21234.72
2022-09-07T20:17:41.714Z,21216.41
2022-09-07T20:20:10.936Z,21248.94
2022-09-07T20:22:39.079Z,21234.72
2022-09-07T20:25:12.506Z,21238.78
2022-09-07T20:27:42.782Z,21214.38
2022-09-07T20:30:12.539Z,21196.09
2022-09-07T20:32:40.685Z,21167.63
2022-09-07T20:35:09.616Z,21124.94
2022-09-07T20:37:37.778Z,21124.94
2022-09-07T20:40:07.586Z,21104.59
2022-09-07T20:42:35.796Z,21063.94
2022-09-07T20:45:06.163Z,21055.81
2022-09-07T20:47:34.374Z,21027.34
2022-09-07T20:50:02.404Z,21033.44
2022-09-07T20:52:30.429Z,21045.63
2022-09-07T20:54:58.436Z,20978.56
2022-09-07T20:57:26.435Z,20978.56
2022-09-07T20:59:54.522Z,20968.38
2022-09-07T21:02:23.951Z,20972.47
2022-09-07T21:04:52.214Z,20946.03
2022-09-07T21:07:20.339Z,20913.50
2022-09-07T21:09:48.381Z,20917.56
2022-09-07T21:12:16.694Z,20927.72
2022-09-07T21:14:46.017Z,20868.78
2022-09-07T21:17:14.055Z,20893.16
2022-09-07T21:19:43.342Z,20891.13
2022-09-07T21:22:11.344Z,20874.88
2022-09-07T21:24:39.410Z,20852.50
2022-09-07T21:27:07.865Z,20838.28
2022-09-07T21:29:35.868Z,20905.38
2022-09-07T21:32:04.616Z,20870.81
2022-09-07T21:34:32.635Z,20858.59
2022-09-07T21:37:01.990Z,20842.34
2022-09-07T21:39:30.084Z,20893.16
2022-09-07T21:41:58.177Z,20872.84
2022-09-07T21:44:26.236Z,20874.88
2022-09-07T21:46:54.308Z,20836.25
2022-09-07T21:49:22.389Z,20822.03
2022-09-07T21:51:51.315Z,20852.50
2022-09-07T21:54:20.764Z,20809.81
2022-09-07T21:56:49.191Z,20801.69
2022-09-07T21:59:17.192Z,20783.41
2022-09-07T22:01:45.403Z,20799.66
2022-09-07T22:04:13.515Z,20763.06
2022-09-07T22:06:43.781Z,20724.44
2022-09-07T22:09:11.764Z,20716.31
2022-09-07T22:11:44.145Z,20706.16
2022-09-07T22:14:15.668Z,20720.38
2022-09-07T22:16:43.704Z,20669.56
2022-09-07T22:19:11.825Z,20659.38
2022-09-07T22:21:39.940Z,20651.25
2022-09-07T22:24:08.967Z,20700.03
2022-09-07T22:26:40.034Z,20649.22
2022-09-07T22:29:11.913Z,20592.31
2022-09-07T22:31:41.488Z,20602.47
2022-09-07T22:34:10.478Z,20602.47
2022-09-07T22:36:41.067Z,20537.44
2022-09-07T22:39:13.865Z,20571.97
2022-09-07T22:41:45.188Z,20545.56
2022-09-07T22:44:17.824Z,20508.97
2022-09-07T22:46:48.098Z,20492.72
2022-09-07T22:49:18.229Z,20506.94
2022-09-07T22:51:47.439Z,20513.03
2022-09-07T22:54:15.919Z,20504.91
2022-09-07T22:56:45.267Z,20462.22
2022-09-07T22:59:14.253Z,20476.44
2022-09-07T23:01:42.820Z,20413.44
2022-09-07T23:04:12.880Z,20419.53
2022-09-07T23:06:43.679Z,20435.78
2022-09-07T23:09:14.258Z,20454.09
2022-09-07T23:11:43.195Z,20433.75
2022-09-07T23:14:17.114Z,20447.97
2022-09-07T23:16:45.982Z,20445.94
2022-09-07T23:19:16.498Z,20447.97
2022-09-07T23:21:45.337Z,20441.88
2022-09-07T23:24:15.786Z,20397.16
2022-09-07T23:26:44.662Z,20415.47
2022-09-07T23:29:15.869Z,20374.81
2022-09-07T23:31:46.365Z,20368.72
2022-09-07T23:34:14.443Z,20354.47
2022-09-07T23:36:42.432Z,20313.84
2022-09-07T23:39:10.975Z,20297.56
2022-09-07T23:41:38.993Z,20307.72
2022-09-07T23:44:07.133Z,20334.16
2022-09-07T23:46:36.516Z,20330.09
2022-09-07T23:49:04.708Z,20321.97
2022-09-07T23:51:32.676Z,20370.75
2022-09-07T23:54:00.829Z,20285.38
2022-09-07T23:56:29.205Z,20299.59
2022-09-07T23:58:57.228Z,20273.19
